sensor_id;sensor_type;location;lat;lon;timestamp;P1;durP1;ratioP1;P2;durP2;ratioP2
71947;SDS011;63257;55.082;38.772;2023-07-13T00:00:21;6.43;;;2.33;;
71947;SDS011;63257;55.082;38.772;2023-07-13T00:02:47;5.43;;;2.20;;
71947;SDS011;63257;55.082;38.772;2023-07-13T00:05:13;4.40;;;2.30;;
71947;SDS011;63257;55.082;38.772;2023-07-13T00:07:39;4.10;;;2.20;;
71947;SDS011;63257;55.082;38.772;2023-07-13T00:10:05;5.20;;;2.30;;
71947;SDS011;63257;55.082;38.772;2023-07-13T00:12:33;5.32;;;2.30;;
71947;SDS011;63257;55.082;38.772;2023-07-13T00:15:03;4.57;;;2.10;;
71947;SDS011;63257;55.082;38.772;2023-07-13T00:17:37;4.20;;;2.10;;
71947;SDS011;63257;55.082;38.772;2023-07-13T00:20:04;4.45;;;2.10;;
71947;SDS011;63257;55.082;38.772;2023-07-13T00:22:31;4.50;;;2.30;;
71947;SDS011;63257;55.082;38.772;2023-07-13T00:24:56;4.10;;;2.03;;
71947;SDS011;63257;55.082;38.772;2023-07-13T00:27:22;4.00;;;2.17;;
71947;SDS011;63257;55.082;38.772;2023-07-13T00:29:49;5.32;;;2.15;;
71947;SDS011;63257;55.082;38.772;2023-07-13T00:32:15;4.80;;;2.20;;
71947;SDS011;63257;55.082;38.772;2023-07-13T00:34:40;5.00;;;2.28;;
71947;SDS011;63257;55.082;38.772;2023-07-13T00:37:07;6.83;;;2.10;;
71947;SDS011;63257;55.082;38.772;2023-07-13T00:39:34;4.72;;;2.15;;
71947;SDS011;63257;55.082;38.772;2023-07-13T00:42:02;4.78;;;2.20;;
71947;SDS011;63257;55.082;38.772;2023-07-13T00:44:29;3.95;;;2.10;;
71947;SDS011;63257;55.082;38.772;2023-07-13T00:46:56;3.80;;;1.80;;
71947;SDS011;63257;55.082;38.772;2023-07-13T00:49:24;4.13;;;2.10;;
71947;SDS011;63257;55.082;38.772;2023-07-13T00:51:58;5.00;;;2.50;;
71947;SDS011;63257;55.082;38.772;2023-07-13T00:54:29;4.65;;;2.28;;
71947;SDS011;63257;55.082;38.772;2023-07-13T00:57:00;4.57;;;2.25;;
71947;SDS011;63257;55.082;38.772;2023-07-13T00:59:28;4.25;;;1.88;;
71947;SDS011;63257;55.082;38.772;2023-07-13T01:01:56;4.73;;;2.10;;
71947;SDS011;63257;55.082;38.772;2023-07-13T01:04:23;4.15;;;2.10;;
71947;SDS011;63257;55.082;38.772;2023-07-13T01:06:50;4.40;;;2.25;;
71947;SDS011;63257;55.082;38.772;2023-07-13T01:09:17;4.78;;;2.28;;
71947;SDS011;63257;55.082;38.772;2023-07-13T01:11:43;5.20;;;2.20;;
71947;SDS011;63257;55.082;38.772;2023-07-13T01:14:10;4.30;;;2.00;;
71947;SDS011;63257;55.082;38.772;2023-07-13T01:16:36;4.53;;;1.95;;
71947;SDS011;63257;55.082;38.772;2023-07-13T01:19:07;5.15;;;2.10;;
71947;SDS011;63257;55.082;38.772;2023-07-13T01:21:41;4.53;;;2.08;;
71947;SDS011;63257;55.082;38.772;2023-07-13T01:24:08;5.03;;;2.22;;
71947;SDS011;63257;55.082;38.772;2023-07-13T01:26:34;4.90;;;2.20;;
71947;SDS011;63257;55.082;38.772;2023-07-13T01:29:00;5.55;;;2.42;;
71947;SDS011;63257;55.082;38.772;2023-07-13T01:31:26;4.80;;;2.35;;
71947;SDS011;63257;55.082;38.772;2023-07-13T01:33:52;5.60;;;2.27;;
71947;SDS011;63257;55.082;38.772;2023-07-13T01:36:20;5.03;;;2.13;;
71947;SDS011;63257;55.082;38.772;2023-07-13T01:38:46;5.18;;;2.35;;
71947;SDS011;63257;55.082;38.772;2023-07-13T01:41:12;7.00;;;2.27;;
71947;SDS011;63257;55.082;38.772;2023-07-13T01:43:38;4.80;;;2.15;;
71947;SDS011;63257;55.082;38.772;2023-07-13T01:46:06;5.20;;;2.33;;
71947;SDS011;63257;55.082;38.772;2023-07-13T01:48:32;5.27;;;2.00;;
71947;SDS011;63257;55.082;38.772;2023-07-13T01:50:59;6.05;;;2.20;;
71947;SDS011;63257;55.082;38.772;2023-07-13T01:53:25;5.63;;;1.90;;
71947;SDS011;63257;55.082;38.772;2023-07-13T01:55:51;4.70;;;2.30;;
71947;SDS011;63257;55.082;38.772;2023-07-13T01:58:17;4.57;;;1.92;;
71947;SDS011;63257;55.082;38.772;2023-07-13T02:00:42;5.07;;;2.30;;
71947;SDS011;63257;55.082;38.772;2023-07-13T02:03:08;4.53;;;2.17;;
71947;SDS011;63257;55.082;38.772;2023-07-13T02:05:34;4.78;;;2.15;;
71947;SDS011;63257;55.082;38.772;2023-07-13T02:08:00;4.40;;;2.10;;
71947;SDS011;63257;55.082;38.772;2023-07-13T02:10:26;5.82;;;2.20;;
71947;SDS011;63257;55.082;38.772;2023-07-13T02:12:52;5.97;;;2.45;;
71947;SDS011;63257;55.082;38.772;2023-07-13T02:15:18;7.83;;;2.60;;
71947;SDS011;63257;55.082;38.772;2023-07-13T02:17:44;4.70;;;2.17;;
71947;SDS011;63257;55.082;38.772;2023-07-13T02:20:10;5.88;;;2.22;;
71947;SDS011;63257;55.082;38.772;2023-07-13T02:22:36;6.10;;;2.10;;
71947;SDS011;63257;55.082;38.772;2023-07-13T02:25:02;5.82;;;2.05;;
71947;SDS011;63257;55.082;38.772;2023-07-13T02:27:30;6.45;;;2.25;;
71947;SDS011;63257;55.082;38.772;2023-07-13T02:29:56;6.13;;;2.20;;
71947;SDS011;63257;55.082;38.772;2023-07-13T02:32:25;4.97;;;2.07;;
71947;SDS011;63257;55.082;38.772;2023-07-13T02:34:51;5.28;;;2.38;;
71947;SDS011;63257;55.082;38.772;2023-07-13T02:37:18;5.82;;;2.53;;
71947;SDS011;63257;55.082;38.772;2023-07-13T02:39:44;6.25;;;2.30;;
71947;SDS011;63257;55.082;38.772;2023-07-13T02:42:10;5.73;;;2.27;;
71947;SDS011;63257;55.082;38.772;2023-07-13T02:44:37;5.25;;;2.08;;
71947;SDS011;63257;55.082;38.772;2023-07-13T02:47:03;4.40;;;2.22;;
71947;SDS011;63257;55.082;38.772;2023-07-13T02:49:29;6.33;;;2.43;;
71947;SDS011;63257;55.082;38.772;2023-07-13T02:51:55;4.47;;;2.40;;
71947;SDS011;63257;55.082;38.772;2023-07-13T02:54:21;6.23;;;2.53;;
71947;SDS011;63257;55.082;38.772;2023-07-13T02:56:46;13.35;;;6.72;;
71947;SDS011;63257;55.082;38.772;2023-07-13T02:59:13;7.30;;;3.13;;
71947;SDS011;63257;55.082;38.772;2023-07-13T03:01:38;6.47;;;2.73;;
71947;SDS011;63257;55.082;38.772;2023-07-13T03:04:05;4.88;;;2.40;;
71947;SDS011;63257;55.082;38.772;2023-07-13T03:06:34;5.57;;;2.40;;
71947;SDS011;63257;55.082;38.772;2023-07-13T03:09:00;4.70;;;2.40;;
71947;SDS011;63257;55.082;38.772;2023-07-13T03:11:28;6.07;;;2.60;;
71947;SDS011;63257;55.082;38.772;2023-07-13T03:14:03;5.00;;;2.40;;
71947;SDS011;63257;55.082;38.772;2023-07-13T03:16:32;5.35;;;2.40;;
71947;SDS011;63257;55.082;38.772;2023-07-13T03:18:59;5.25;;;2.40;;
71947;SDS011;63257;55.082;38.772;2023-07-13T03:21:26;6.63;;;2.47;;
71947;SDS011;63257;55.082;38.772;2023-07-13T03:23:52;4.37;;;2.00;;
71947;SDS011;63257;55.082;38.772;2023-07-13T03:26:18;15.05;;;8.02;;
71947;SDS011;63257;55.082;38.772;2023-07-13T03:28:45;6.95;;;2.70;;
71947;SDS011;63257;55.082;38.772;2023-07-13T03:31:17;4.40;;;1.70;;
71947;SDS011;63257;55.082;38.772;2023-07-13T03:33:45;5.60;;;1.88;;
71947;SDS011;63257;55.082;38.772;2023-07-13T03:36:14;4.32;;;1.60;;
71947;SDS011;63257;55.082;38.772;2023-07-13T03:38:46;5.10;;;1.70;;
71947;SDS011;63257;55.082;38.772;2023-07-13T03:41:22;11.20;;;5.35;;
71947;SDS011;63257;55.082;38.772;2023-07-13T03:43:49;4.57;;;2.27;;
71947;SDS011;63257;55.082;38.772;2023-07-13T03:46:18;4.88;;;2.58;;
71947;SDS011;63257;55.082;38.772;2023-07-13T03:48:45;5.50;;;2.35;;
71947;SDS011;63257;55.082;38.772;2023-07-13T03:51:13;6.78;;;2.20;;
71947;SDS011;63257;55.082;38.772;2023-07-13T03:53:41;7.15;;;2.50;;
71947;SDS011;63257;55.082;38.772;2023-07-13T03:56:09;5.63;;;2.50;;
71947;SDS011;63257;55.082;38.772;2023-07-13T03:58:36;6.20;;;2.20;;
71947;SDS011;63257;55.082;38.772;2023-07-13T04:01:10;4.93;;;2.30;;
71947;SDS011;63257;55.082;38.772;2023-07-13T04:03:38;5.32;;;2.50;;
71947;SDS011;63257;55.082;38.772;2023-07-13T04:06:06;6.00;;;2.90;;
71947;SDS011;63257;55.082;38.772;2023-07-13T04:08:34;7.43;;;2.93;;
71947;SDS011;63257;55.082;38.772;2023-07-13T04:11:02;5.35;;;2.50;;
71947;SDS011;63257;55.082;38.772;2023-07-13T04:13:30;7.22;;;3.05;;
71947;SDS011;63257;55.082;38.772;2023-07-13T04:15:56;6.43;;;2.95;;
71947;SDS011;63257;55.082;38.772;2023-07-13T04:18:22;4.80;;;2.60;;
71947;SDS011;63257;55.082;38.772;2023-07-13T04:20:48;5.75;;;2.80;;
71947;SDS011;63257;55.082;38.772;2023-07-13T04:23:16;6.43;;;2.70;;
71947;SDS011;63257;55.082;38.772;2023-07-13T04:25:46;7.68;;;2.70;;
71947;SDS011;63257;55.082;38.772;2023-07-13T04:28:15;5.32;;;2.38;;
71947;SDS011;63257;55.082;38.772;2023-07-13T04:30:42;5.90;;;2.77;;
71947;SDS011;63257;55.082;38.772;2023-07-13T04:33:09;6.40;;;2.97;;
71947;SDS011;63257;55.082;38.772;2023-07-13T04:35:35;6.25;;;2.50;;
71947;SDS011;63257;55.082;38.772;2023-07-13T04:38:01;5.43;;;2.47;;
71947;SDS011;63257;55.082;38.772;2023-07-13T04:40:27;6.43;;;2.83;;
71947;SDS011;63257;55.082;38.772;2023-07-13T04:42:53;5.20;;;2.90;;
71947;SDS011;63257;55.082;38.772;2023-07-13T04:45:19;6.70;;;2.60;;
71947;SDS011;63257;55.082;38.772;2023-07-13T04:47:45;5.47;;;2.60;;
71947;SDS011;63257;55.082;38.772;2023-07-13T04:50:12;7.13;;;2.90;;
71947;SDS011;63257;55.082;38.772;2023-07-13T04:52:46;5.82;;;3.00;;
71947;SDS011;63257;55.082;38.772;2023-07-13T04:55:13;5.57;;;2.53;;
71947;SDS011;63257;55.082;38.772;2023-07-13T04:57:39;7.00;;;2.88;;
71947;SDS011;63257;55.082;38.772;2023-07-13T05:00:05;7.00;;;2.65;;
71947;SDS011;63257;55.082;38.772;2023-07-13T05:02:32;5.28;;;2.70;;
71947;SDS011;63257;55.082;38.772;2023-07-13T05:05:00;7.27;;;3.00;;
71947;SDS011;63257;55.082;38.772;2023-07-13T05:07:29;7.85;;;3.20;;
71947;SDS011;63257;55.082;38.772;2023-07-13T05:09:55;5.97;;;3.28;;
71947;SDS011;63257;55.082;38.772;2023-07-13T05:12:21;7.07;;;3.10;;
71947;SDS011;63257;55.082;38.772;2023-07-13T05:14:47;5.00;;;2.60;;
71947;SDS011;63257;55.082;38.772;2023-07-13T05:17:14;5.78;;;3.03;;
71947;SDS011;63257;55.082;38.772;2023-07-13T05:19:40;5.00;;;2.80;;
71947;SDS011;63257;55.082;38.772;2023-07-13T05:22:05;5.65;;;2.67;;
71947;SDS011;63257;55.082;38.772;2023-07-13T05:24:31;5.50;;;2.53;;
71947;SDS011;63257;55.082;38.772;2023-07-13T05:26:58;6.38;;;2.60;;
71947;SDS011;63257;55.082;38.772;2023-07-13T05:29:23;6.65;;;2.83;;
71947;SDS011;63257;55.082;38.772;2023-07-13T05:31:50;7.10;;;3.20;;
71947;SDS011;63257;55.082;38.772;2023-07-13T05:34:15;7.20;;;3.10;;
71947;SDS011;63257;55.082;38.772;2023-07-13T05:36:41;6.47;;;3.00;;
71947;SDS011;63257;55.082;38.772;2023-07-13T05:39:07;6.60;;;2.90;;
71947;SDS011;63257;55.082;38.772;2023-07-13T05:41:34;6.93;;;2.85;;
71947;SDS011;63257;55.082;38.772;2023-07-13T05:43:59;7.43;;;3.13;;
71947;SDS011;63257;55.082;38.772;2023-07-13T05:46:25;7.30;;;3.20;;
71947;SDS011;63257;55.082;38.772;2023-07-13T05:48:51;7.28;;;3.17;;
71947;SDS011;63257;55.082;38.772;2023-07-13T05:51:17;6.40;;;3.42;;
71947;SDS011;63257;55.082;38.772;2023-07-13T05:53:42;6.60;;;2.80;;
71947;SDS011;63257;55.082;38.772;2023-07-13T05:56:08;5.83;;;3.10;;
71947;SDS011;63257;55.082;38.772;2023-07-13T05:58:34;5.45;;;2.75;;
71947;SDS011;63257;55.082;38.772;2023-07-13T06:01:02;7.03;;;2.92;;
71947;SDS011;63257;55.082;38.772;2023-07-13T06:03:29;5.97;;;2.95;;
71947;SDS011;63257;55.082;38.772;2023-07-13T06:05:55;6.13;;;3.10;;
71947;SDS011;63257;55.082;38.772;2023-07-13T06:08:21;6.55;;;3.38;;
71947;SDS011;63257;55.082;38.772;2023-07-13T06:10:47;5.70;;;2.88;;
71947;SDS011;63257;55.082;38.772;2023-07-13T06:13:13;6.57;;;3.20;;
71947;SDS011;63257;55.082;38.772;2023-07-13T06:15:38;5.78;;;2.90;;
71947;SDS011;63257;55.082;38.772;2023-07-13T06:18:04;5.90;;;2.93;;
71947;SDS011;63257;55.082;38.772;2023-07-13T06:20:30;5.93;;;3.03;;
71947;SDS011;63257;55.082;38.772;2023-07-13T06:22:59;6.07;;;2.90;;
71947;SDS011;63257;55.082;38.772;2023-07-13T06:25:25;7.35;;;3.08;;
71947;SDS011;63257;55.082;38.772;2023-07-13T06:27:52;6.32;;;3.20;;
71947;SDS011;63257;55.082;38.772;2023-07-13T06:30:17;5.27;;;3.20;;
71947;SDS011;63257;55.082;38.772;2023-07-13T06:32:43;6.03;;;3.17;;
71947;SDS011;63257;55.082;38.772;2023-07-13T06:35:09;7.15;;;3.25;;
71947;SDS011;63257;55.082;38.772;2023-07-13T06:37:37;5.33;;;2.83;;
71947;SDS011;63257;55.082;38.772;2023-07-13T06:40:03;10.80;;;3.13;;
71947;SDS011;63257;55.082;38.772;2023-07-13T06:42:30;6.70;;;2.70;;
71947;SDS011;63257;55.082;38.772;2023-07-13T06:44:56;6.77;;;3.47;;
71947;SDS011;63257;55.082;38.772;2023-07-13T06:47:21;7.65;;;3.20;;
71947;SDS011;63257;55.082;38.772;2023-07-13T06:49:47;6.60;;;3.20;;
71947;SDS011;63257;55.082;38.772;2023-07-13T06:52:13;7.85;;;3.08;;
71947;SDS011;63257;55.082;38.772;2023-07-13T06:54:39;6.37;;;3.33;;
71947;SDS011;63257;55.082;38.772;2023-07-13T06:57:05;7.13;;;3.17;;
71947;SDS011;63257;55.082;38.772;2023-07-13T06:59:30;5.22;;;3.00;;
71947;SDS011;63257;55.082;38.772;2023-07-13T07:01:56;8.27;;;3.30;;
71947;SDS011;63257;55.082;38.772;2023-07-13T07:04:22;7.35;;;3.10;;
71947;SDS011;63257;55.082;38.772;2023-07-13T07:06:48;6.30;;;3.10;;
71947;SDS011;63257;55.082;38.772;2023-07-13T07:09:14;6.95;;;3.20;;
71947;SDS011;63257;55.082;38.772;2023-07-13T07:11:41;6.90;;;3.27;;
71947;SDS011;63257;55.082;38.772;2023-07-13T07:14:07;7.72;;;3.30;;
71947;SDS011;63257;55.082;38.772;2023-07-13T07:16:33;7.35;;;3.30;;
71947;SDS011;63257;55.082;38.772;2023-07-13T07:18:59;10.30;;;3.53;;
71947;SDS011;63257;55.082;38.772;2023-07-13T07:21:25;5.27;;;3.10;;
71947;SDS011;63257;55.082;38.772;2023-07-13T07:23:51;8.73;;;3.33;;
71947;SDS011;63257;55.082;38.772;2023-07-13T07:26:18;7.40;;;3.45;;
71947;SDS011;63257;55.082;38.772;2023-07-13T07:28:43;7.60;;;3.40;;
71947;SDS011;63257;55.082;38.772;2023-07-13T07:31:09;4.90;;;2.90;;
71947;SDS011;63257;55.082;38.772;2023-07-13T07:33:35;7.13;;;3.33;;
71947;SDS011;63257;55.082;38.772;2023-07-13T07:36:01;6.13;;;3.33;;
71947;SDS011;63257;55.082;38.772;2023-07-13T07:38:28;7.40;;;3.78;;
71947;SDS011;63257;55.082;38.772;2023-07-13T07:40:54;5.30;;;3.20;;
71947;SDS011;63257;55.082;38.772;2023-07-13T07:43:20;5.60;;;3.38;;
71947;SDS011;63257;55.082;38.772;2023-07-13T07:45:46;5.90;;;3.40;;
71947;SDS011;63257;55.082;38.772;2023-07-13T07:48:12;5.60;;;3.50;;
71947;SDS011;63257;55.082;38.772;2023-07-13T07:50:38;6.20;;;3.33;;
71947;SDS011;63257;55.082;38.772;2023-07-13T07:53:04;6.45;;;3.30;;
71947;SDS011;63257;55.082;38.772;2023-07-13T07:55:33;6.70;;;3.20;;
71947;SDS011;63257;55.082;38.772;2023-07-13T07:58:02;6.88;;;3.50;;
71947;SDS011;63257;55.082;38.772;2023-07-13T08:00:28;6.80;;;3.17;;
71947;SDS011;63257;55.082;38.772;2023-07-13T08:02:57;5.40;;;3.00;;
71947;SDS011;63257;55.082;38.772;2023-07-13T08:05:23;9.80;;;3.23;;
71947;SDS011;63257;55.082;38.772;2023-07-13T08:07:49;8.10;;;3.60;;
71947;SDS011;63257;55.082;38.772;2023-07-13T08:10:15;6.53;;;3.78;;
71947;SDS011;63257;55.082;38.772;2023-07-13T08:12:41;7.35;;;3.80;;
71947;SDS011;63257;55.082;38.772;2023-07-13T08:15:08;6.82;;;3.75;;
71947;SDS011;63257;55.082;38.772;2023-07-13T08:17:37;5.53;;;3.30;;
71947;SDS011;63257;55.082;38.772;2023-07-13T08:20:03;5.60;;;3.10;;
71947;SDS011;63257;55.082;38.772;2023-07-13T08:22:32;6.15;;;3.17;;
71947;SDS011;63257;55.082;38.772;2023-07-13T08:24:59;6.32;;;3.40;;
71947;SDS011;63257;55.082;38.772;2023-07-13T08:27:25;5.45;;;3.30;;
71947;SDS011;63257;55.082;38.772;2023-07-13T08:29:53;7.25;;;3.90;;
71947;SDS011;63257;55.082;38.772;2023-07-13T08:32:20;6.75;;;3.67;;
71947;SDS011;63257;55.082;38.772;2023-07-13T08:34:47;8.50;;;3.40;;
71947;SDS011;63257;55.082;38.772;2023-07-13T08:37:14;5.40;;;3.53;;
71947;SDS011;63257;55.082;38.772;2023-07-13T08:39:40;7.03;;;3.65;;
71947;SDS011;63257;55.082;38.772;2023-07-13T08:53:52;8.75;;;3.60;;
71947;SDS011;63257;55.082;38.772;2023-07-13T08:56:24;5.50;;;3.20;;
71947;SDS011;63257;55.082;38.772;2023-07-13T08:58:54;7.32;;;3.30;;
71947;SDS011;63257;55.082;38.772;2023-07-13T09:04:24;7.68;;;3.65;;
71947;SDS011;63257;55.082;38.772;2023-07-13T09:09:55;7.68;;;3.67;;
71947;SDS011;63257;55.082;38.772;2023-07-13T09:14:54;8.98;;;3.85;;
71947;SDS011;63257;55.082;38.772;2023-07-13T09:20:02;7.35;;;4.05;;
71947;SDS011;63257;55.082;38.772;2023-07-13T09:22:40;9.90;;;4.30;;
71947;SDS011;63257;55.082;38.772;2023-07-13T09:27:39;7.60;;;4.80;;
71947;SDS011;63257;55.082;38.772;2023-07-13T09:32:44;7.80;;;4.60;;
71947;SDS011;63257;55.082;38.772;2023-07-13T09:35:16;7.47;;;4.53;;
71947;SDS011;63257;55.082;38.772;2023-07-13T09:37:45;9.50;;;4.93;;
71947;SDS011;63257;55.082;38.772;2023-07-13T09:40:21;7.43;;;4.70;;
71947;SDS011;63257;55.082;38.772;2023-07-13T09:42:53;10.32;;;5.35;;
71947;SDS011;63257;55.082;38.772;2023-07-13T09:45:29;9.77;;;4.20;;
71947;SDS011;63257;55.082;38.772;2023-07-13T09:48:00;8.63;;;4.50;;
71947;SDS011;63257;55.082;38.772;2023-07-13T09:50:30;6.50;;;4.35;;
71947;SDS011;63257;55.082;38.772;2023-07-13T09:52:56;9.52;;;5.22;;
71947;SDS011;63257;55.082;38.772;2023-07-13T09:58:10;8.17;;;5.20;;
71947;SDS011;63257;55.082;38.772;2023-07-13T10:00:40;8.20;;;4.63;;
71947;SDS011;63257;55.082;38.772;2023-07-13T10:03:17;6.85;;;4.47;;
71947;SDS011;63257;55.082;38.772;2023-07-13T10:05:49;10.75;;;5.45;;
71947;SDS011;63257;55.082;38.772;2023-07-13T10:10:43;8.47;;;4.77;;
71947;SDS011;63257;55.082;38.772;2023-07-13T10:13:53;7.15;;;4.47;;
71947;SDS011;63257;55.082;38.772;2023-07-13T10:16:02;9.18;;;4.90;;
71947;SDS011;63257;55.082;38.772;2023-07-13T10:18:35;7.72;;;4.88;;
71947;SDS011;63257;55.082;38.772;2023-07-13T10:21:26;6.63;;;4.40;;
71947;SDS011;63257;55.082;38.772;2023-07-13T10:26:47;8.52;;;4.60;;
71947;SDS011;63257;55.082;38.772;2023-07-13T10:29:20;8.18;;;5.00;;
71947;SDS011;63257;55.082;38.772;2023-07-13T10:31:49;8.30;;;4.80;;
71947;SDS011;63257;55.082;38.772;2023-07-13T10:34:15;9.20;;;4.97;;
71947;SDS011;63257;55.082;38.772;2023-07-13T10:36:43;8.98;;;5.18;;
71947;SDS011;63257;55.082;38.772;2023-07-13T10:39:15;8.13;;;5.20;;
71947;SDS011;63257;55.082;38.772;2023-07-13T10:41:49;8.27;;;4.95;;
71947;SDS011;63257;55.082;38.772;2023-07-13T10:44:23;7.45;;;4.10;;
71947;SDS011;63257;55.082;38.772;2023-07-13T10:47:04;6.63;;;4.60;;
71947;SDS011;63257;55.082;38.772;2023-07-13T10:49:39;7.43;;;4.07;;
71947;SDS011;63257;55.082;38.772;2023-07-13T10:52:35;7.30;;;4.20;;
71947;SDS011;63257;55.082;38.772;2023-07-13T10:58:23;7.93;;;4.00;;
71947;SDS011;63257;55.082;38.772;2023-07-13T11:03:46;8.00;;;4.25;;
71947;SDS011;63257;55.082;38.772;2023-07-13T11:06:18;7.80;;;4.00;;
71947;SDS011;63257;55.082;38.772;2023-07-13T11:08:56;8.57;;;4.10;;
71947;SDS011;63257;55.082;38.772;2023-07-13T11:18:51;6.80;;;3.80;;
71947;SDS011;63257;55.082;38.772;2023-07-13T11:21:33;7.13;;;4.00;;
71947;SDS011;63257;55.082;38.772;2023-07-13T11:24:17;6.67;;;3.77;;
71947;SDS011;63257;55.082;38.772;2023-07-13T11:29:34;6.97;;;3.95;;
71947;SDS011;63257;55.082;38.772;2023-07-13T11:32:19;5.97;;;3.83;;
71947;SDS011;63257;55.082;38.772;2023-07-13T11:34:49;7.25;;;4.10;;
71947;SDS011;63257;55.082;38.772;2023-07-13T11:37:16;7.93;;;4.10;;
71947;SDS011;63257;55.082;38.772;2023-07-13T11:39:44;7.30;;;4.00;;
71947;SDS011;63257;55.082;38.772;2023-07-13T11:42:12;8.82;;;3.92;;
71947;SDS011;63257;55.082;38.772;2023-07-13T11:44:44;6.30;;;3.60;;
71947;SDS011;63257;55.082;38.772;2023-07-13T11:47:19;7.47;;;3.90;;
71947;SDS011;63257;55.082;38.772;2023-07-13T11:49:51;7.70;;;3.60;;
71947;SDS011;63257;55.082;38.772;2023-07-13T11:52:22;6.85;;;3.78;;
71947;SDS011;63257;55.082;38.772;2023-07-13T11:54:52;7.95;;;3.40;;
71947;SDS011;63257;55.082;38.772;2023-07-13T12:00:15;6.95;;;3.60;;
71947;SDS011;63257;55.082;38.772;2023-07-13T12:02:45;6.90;;;3.93;;
71947;SDS011;63257;55.082;38.772;2023-07-13T12:05:14;7.13;;;3.65;;
71947;SDS011;63257;55.082;38.772;2023-07-13T12:07:43;9.98;;;3.75;;
71947;SDS011;63257;55.082;38.772;2023-07-13T12:12:48;6.10;;;3.42;;
71947;SDS011;63257;55.082;38.772;2023-07-13T12:15:14;6.50;;;3.60;;
71947;SDS011;63257;55.082;38.772;2023-07-13T12:17:40;5.30;;;3.10;;
71947;SDS011;63257;55.082;38.772;2023-07-13T12:23:10;7.35;;;3.00;;
71947;SDS011;63257;55.082;38.772;2023-07-13T12:25:47;5.35;;;2.78;;
71947;SDS011;63257;55.082;38.772;2023-07-13T12:28:28;5.23;;;2.87;;
71947;SDS011;63257;55.082;38.772;2023-07-13T12:30:59;7.65;;;2.90;;
71947;SDS011;63257;55.082;38.772;2023-07-13T12:33:27;10.70;;;5.75;;
71947;SDS011;63257;55.082;38.772;2023-07-13T12:35:55;4.87;;;2.93;;
71947;SDS011;63257;55.082;38.772;2023-07-13T12:38:21;4.90;;;2.58;;
71947;SDS011;63257;55.082;38.772;2023-07-13T12:40:50;5.70;;;2.80;;
71947;SDS011;63257;55.082;38.772;2023-07-13T12:43:19;5.13;;;2.50;;
71947;SDS011;63257;55.082;38.772;2023-07-13T12:48:26;7.03;;;2.70;;
71947;SDS011;63257;55.082;38.772;2023-07-13T12:50:53;5.43;;;2.70;;
71947;SDS011;63257;55.082;38.772;2023-07-13T12:53:21;7.45;;;3.20;;
71947;SDS011;63257;55.082;38.772;2023-07-13T12:55:50;5.68;;;2.95;;
71947;SDS011;63257;55.082;38.772;2023-07-13T12:58:40;4.93;;;2.65;;
71947;SDS011;63257;55.082;38.772;2023-07-13T13:01:12;5.87;;;3.20;;
71947;SDS011;63257;55.082;38.772;2023-07-13T13:03:46;5.55;;;2.72;;
71947;SDS011;63257;55.082;38.772;2023-07-13T13:08:48;5.63;;;2.92;;
71947;SDS011;63257;55.082;38.772;2023-07-13T13:11:16;7.07;;;2.90;;
71947;SDS011;63257;55.082;38.772;2023-07-13T13:13:43;6.07;;;2.93;;
71947;SDS011;63257;55.082;38.772;2023-07-13T13:18:44;7.47;;;2.80;;
71947;SDS011;63257;55.082;38.772;2023-07-13T13:21:11;5.90;;;3.10;;
71947;SDS011;63257;55.082;38.772;2023-07-13T13:23:37;8.35;;;3.50;;
71947;SDS011;63257;55.082;38.772;2023-07-13T13:26:07;6.60;;;3.13;;
71947;SDS011;63257;55.082;38.772;2023-07-13T13:28:35;6.38;;;2.90;;
71947;SDS011;63257;55.082;38.772;2023-07-13T13:31:01;7.75;;;3.40;;
71947;SDS011;63257;55.082;38.772;2023-07-13T13:33:27;5.90;;;3.25;;
71947;SDS011;63257;55.082;38.772;2023-07-13T13:35:53;6.70;;;2.80;;
71947;SDS011;63257;55.082;38.772;2023-07-13T13:38:20;5.90;;;2.92;;
71947;SDS011;63257;55.082;38.772;2023-07-13T13:40:51;6.07;;;2.80;;
71947;SDS011;63257;55.082;38.772;2023-07-13T13:43:17;6.68;;;3.17;;
71947;SDS011;63257;55.082;38.772;2023-07-13T13:45:45;6.78;;;3.17;;
71947;SDS011;63257;55.082;38.772;2023-07-13T13:48:15;5.47;;;3.03;;
71947;SDS011;63257;55.082;38.772;2023-07-13T13:50:43;6.63;;;3.47;;
71947;SDS011;63257;55.082;38.772;2023-07-13T13:53:10;6.20;;;3.40;;
71947;SDS011;63257;55.082;38.772;2023-07-13T13:55:39;7.47;;;3.95;;
71947;SDS011;63257;55.082;38.772;2023-07-13T13:58:10;7.70;;;3.92;;
71947;SDS011;63257;55.082;38.772;2023-07-13T14:00:37;8.77;;;3.80;;
71947;SDS011;63257;55.082;38.772;2023-07-13T14:03:03;10.73;;;5.80;;
71947;SDS011;63257;55.082;38.772;2023-07-13T14:05:31;9.23;;;4.18;;
71947;SDS011;63257;55.082;38.772;2023-07-13T14:07:57;7.07;;;3.75;;
71947;SDS011;63257;55.082;38.772;2023-07-13T14:10:23;8.27;;;4.00;;
71947;SDS011;63257;55.082;38.772;2023-07-13T14:12:52;8.98;;;4.53;;
71947;SDS011;63257;55.082;38.772;2023-07-13T14:17:51;7.70;;;3.90;;
71947;SDS011;63257;55.082;38.772;2023-07-13T14:20:18;12.30;;;6.70;;
71947;SDS011;63257;55.082;38.772;2023-07-13T14:22:46;9.27;;;4.80;;
71947;SDS011;63257;55.082;38.772;2023-07-13T14:25:12;12.88;;;6.63;;
71947;SDS011;63257;55.082;38.772;2023-07-13T14:27:39;7.35;;;4.00;;
71947;SDS011;63257;55.082;38.772;2023-07-13T14:30:17;8.20;;;3.90;;
71947;SDS011;63257;55.082;38.772;2023-07-13T14:32:45;8.73;;;3.88;;
71947;SDS011;63257;55.082;38.772;2023-07-13T14:35:12;10.68;;;5.70;;
71947;SDS011;63257;55.082;38.772;2023-07-13T14:37:39;9.95;;;4.57;;
71947;SDS011;63257;55.082;38.772;2023-07-13T14:43:01;8.10;;;4.47;;
71947;SDS011;63257;55.082;38.772;2023-07-13T14:45:27;9.23;;;4.28;;
71947;SDS011;63257;55.082;38.772;2023-07-13T14:47:53;6.60;;;3.70;;
71947;SDS011;63257;55.082;38.772;2023-07-13T14:50:20;9.10;;;4.47;;
71947;SDS011;63257;55.082;38.772;2023-07-13T14:52:52;7.63;;;4.40;;
71947;SDS011;63257;55.082;38.772;2023-07-13T14:55:18;8.48;;;4.40;;
71947;SDS011;63257;55.082;38.772;2023-07-13T14:57:45;8.52;;;4.60;;
71947;SDS011;63257;55.082;38.772;2023-07-13T15:00:15;7.75;;;3.95;;
71947;SDS011;63257;55.082;38.772;2023-07-13T15:02:43;9.03;;;3.80;;
71947;SDS011;63257;55.082;38.772;2023-07-13T15:05:17;12.15;;;6.70;;
71947;SDS011;63257;55.082;38.772;2023-07-13T15:07:45;7.35;;;3.80;;
71947;SDS011;63257;55.082;38.772;2023-07-13T15:10:12;6.57;;;3.63;;
71947;SDS011;63257;55.082;38.772;2023-07-13T15:12:39;6.93;;;3.93;;
71947;SDS011;63257;55.082;38.772;2023-07-13T15:15:05;7.28;;;3.88;;
71947;SDS011;63257;55.082;38.772;2023-07-13T15:17:34;9.13;;;3.70;;
71947;SDS011;63257;55.082;38.772;2023-07-13T15:22:40;7.97;;;3.30;;
71947;SDS011;63257;55.082;38.772;2023-07-13T15:25:11;5.97;;;3.15;;
71947;SDS011;63257;55.082;38.772;2023-07-13T15:27:41;7.03;;;3.10;;
71947;SDS011;63257;55.082;38.772;2023-07-13T15:30:07;5.88;;;2.55;;
71947;SDS011;63257;55.082;38.772;2023-07-13T15:32:34;5.55;;;3.13;;
71947;SDS011;63257;55.082;38.772;2023-07-13T15:35:00;6.35;;;3.55;;
71947;SDS011;63257;55.082;38.772;2023-07-13T15:37:26;6.47;;;3.17;;
71947;SDS011;63257;55.082;38.772;2023-07-13T15:39:51;5.63;;;2.92;;
71947;SDS011;63257;55.082;38.772;2023-07-13T15:42:18;7.50;;;3.30;;
71947;SDS011;63257;55.082;38.772;2023-07-13T15:44:45;6.10;;;3.20;;
71947;SDS011;63257;55.082;38.772;2023-07-13T15:47:12;5.78;;;3.15;;
71947;SDS011;63257;55.082;38.772;2023-07-13T15:49:40;5.85;;;3.35;;
71947;SDS011;63257;55.082;38.772;2023-07-13T15:52:27;7.88;;;3.60;;
71947;SDS011;63257;55.082;38.772;2023-07-13T15:54:53;6.43;;;3.53;;